Terminal Aerodrome Forecast
Issued by NWS

Home | Current Version | Previous Version | Text Only | Print | Product List | Glossary On
Versions: 1 2 3 4 5 6 7 8 9 10 11 12 13 14 15 16 17 18 19 20 21 22 23 24 25 26
000
FTUS44 KHGX 310304 AAA
TAFIAH
TAF AMD
KIAH 310304Z 3103/0106 16005KT P6SM SCT250
     FM310800 VRB03KT P6SM SCT015 BKN250
     FM311500 16005KT P6SM SCT025
     FM312000 13009KT P6SM SCT040 SCT150 BKN250
     FM010200 16005KT P6SM BKN250=

USA.gov is the U.S. government's official web portal to all federal, state and local government web resources and services.